createdAt,value
2023-04-06T16:55:10.642Z,99688.94
2023-04-06T16:57:38.717Z,99680.28
2023-04-06T17:00:08.268Z,99705.94
2023-04-06T17:02:37.199Z,99733.78
2023-04-06T17:05:09.662Z,99792.34
2023-04-06T17:07:37.902Z,99814.44
2023-04-06T17:10:07.088Z,99864.00
2023-04-06T17:12:35.206Z,99870.75
2023-04-06T17:15:03.298Z,99855.38
2023-04-06T17:17:31.571Z,99866.84
2023-04-06T17:19:59.755Z,99842.25
2023-04-06T17:22:29.044Z,99898.81
2023-04-06T17:24:56.955Z,99876.13
2023-04-06T17:27:26.618Z,99870.28
2023-04-06T17:29:54.775Z,99873.38
2023-04-06T17:32:22.715Z,99885.16
2023-04-06T17:34:50.864Z,99915.97
2023-04-06T17:37:18.943Z,99955.53
2023-04-06T17:39:48.393Z,99933.63
2023-04-06T17:42:16.387Z,99965.19
2023-04-06T17:44:44.276Z,99964.66
2023-04-06T17:47:12.128Z,99980.31
2023-04-06T17:49:40.062Z,99999.53
2023-04-06T17:52:07.951Z,100026.75
2023-04-06T17:54:39.046Z,100023.78
2023-04-06T17:57:09.072Z,100037.34
2023-04-06T17:59:37.204Z,100016.06
2023-04-06T18:02:05.938Z,100056.00
2023-04-06T18:04:33.982Z,100058.44
2023-04-06T18:07:01.797Z,100080.06
2023-04-06T18:09:31.710Z,100076.00
2023-04-06T18:11:59.772Z,100097.78
2023-04-06T18:14:29.150Z,100101.66
2023-04-06T18:16:56.858Z,100126.19
2023-04-06T18:19:24.754Z,100111.13
2023-04-06T18:21:52.558Z,100126.59
2023-04-06T18:24:37.314Z,100189.81
2023-04-06T18:27:08.847Z,100178.75
2023-04-06T18:29:38.260Z,100176.22
2023-04-06T18:32:07.627Z,100200.97
2023-04-06T18:34:36.136Z,100192.81
2023-04-06T18:37:03.949Z,100172.69
2023-04-06T18:39:31.985Z,100204.41
2023-04-06T18:41:59.852Z,100210.16
2023-04-06T18:44:27.888Z,100230.78
2023-04-06T18:46:57.730Z,100235.28
2023-04-06T18:49:26.907Z,100241.59
2023-04-06T18:51:55.732Z,100224.00
2023-04-06T18:54:23.697Z,100257.06
2023-04-06T18:56:51.656Z,100273.03
2023-04-06T18:59:19.575Z,100270.00
2023-04-06T19:01:51.126Z,100287.59
2023-04-06T19:04:27.221Z,100290.69
2023-04-06T19:06:55.776Z,100306.06
2023-04-06T19:09:23.595Z,100312.13
2023-04-06T19:11:52.585Z,100313.00
2023-04-06T19:14:20.412Z,100311.31
2023-04-06T19:16:52.481Z,100303.78
2023-04-06T19:19:22.730Z,100318.50
2023-04-06T19:21:50.725Z,100318.50
2023-04-06T19:24:18.719Z,100348.22
2023-04-06T19:26:47.584Z,100343.09
2023-04-06T19:29:15.398Z,100385.41
2023-04-06T19:31:43.199Z,100372.22
2023-04-06T19:34:11.388Z,100381.84
2023-04-06T19:36:40.691Z,100394.63
2023-04-06T19:39:08.651Z,100406.38
2023-04-06T19:41:38.651Z,100413.78
2023-04-06T19:44:07.097Z,100415.75
2023-04-06T19:46:35.258Z,100444.94
2023-04-06T19:49:03.618Z,100433.63
2023-04-06T19:51:32.560Z,100455.97
2023-04-06T19:54:04.732Z,100454.47
2023-04-06T19:56:32.685Z,100466.19
2023-04-06T19:59:01.881Z,100497.09
2023-04-06T20:01:30.532Z,100492.69
2023-04-06T20:03:59.272Z,100533.81
2023-04-06T20:06:27.152Z,100511.88
2023-04-06T20:08:55.053Z,100529.53
2023-04-06T20:11:24.312Z,100530.41
2023-04-06T20:13:52.242Z,100521.66
2023-04-06T20:16:20.179Z,100524.34
2023-04-06T20:18:48.042Z,100519.91
2023-04-06T20:21:16.138Z,100561.50
2023-04-06T20:23:44.147Z,100564.31
2023-04-06T20:26:11.958Z,100576.72
2023-04-06T20:28:41.404Z,100573.41
2023-04-06T20:31:09.388Z,100592.06
2023-04-06T20:33:37.427Z,100591.47
2023-04-06T20:36:05.594Z,100601.41
2023-04-06T20:38:34.085Z,100628.72
2023-04-06T20:41:02.462Z,100620.88
2023-04-06T20:43:31.815Z,100637.63
2023-04-06T20:46:20.885Z,100647.41
2023-04-06T20:48:48.687Z,100652.75
2023-04-06T20:51:21.272Z,100660.66
2023-04-06T20:53:48.909Z,100659.03
2023-04-06T20:56:16.727Z,100672.50
2023-04-06T20:58:44.679Z,100692.94
2023-04-06T21:01:16.487Z,100703.72
2023-04-06T21:03:46.031Z,100704.75
2023-04-06T21:06:13.968Z,100737.47
2023-04-06T21:08:41.906Z,100729.72
2023-04-06T21:11:10.898Z,100752.75
2023-04-06T21:13:38.788Z,100750.94
2023-04-06T21:16:07.414Z,100757.31
2023-04-06T21:18:35.480Z,100767.19
2023-04-06T21:21:05.057Z,100770.13
2023-04-06T21:23:33.150Z,100782.59
2023-04-06T21:26:02.121Z,100769.66
2023-04-06T21:28:30.272Z,100818.47
2023-04-06T21:30:58.151Z,100835.25
2023-04-06T21:33:26.205Z,100835.16
2023-04-06T21:35:53.992Z,100826.44
2023-04-06T21:38:23.287Z,100836.34
2023-04-06T21:40:56.213Z,100865.38
2023-04-06T21:43:24.210Z,100874.19
2023-04-06T21:45:52.375Z,100907.66
2023-04-06T21:48:20.205Z,100881.41
2023-04-06T21:50:48.059Z,100901.66
2023-04-06T21:53:15.918Z,100916.72
2023-04-06T21:55:47.374Z,100940.38
2023-04-06T21:58:16.080Z,100946.47
2023-04-06T22:00:44.207Z,100941.25
2023-04-06T22:03:12.236Z,100959.88
2023-04-06T22:05:40.245Z,101015.38
2023-04-06T22:08:08.454Z,101033.03
2023-04-06T22:10:41.053Z,101031.34
2023-04-06T22:13:12.103Z,101048.03
2023-04-06T22:15:39.864Z,101054.88
2023-04-06T22:18:08.324Z,101030.28
2023-04-06T22:20:36.373Z,100979.34
2023-04-06T22:23:04.255Z,100946.34
2023-04-06T22:25:32.777Z,101020.38
2023-04-06T22:28:00.618Z,101065.47
2023-04-06T22:30:29.919Z,101120.03
2023-04-06T22:32:57.884Z,101175.53
2023-04-06T22:35:25.693Z,101223.88
2023-04-06T22:37:53.514Z,101259.13
2023-04-06T22:40:21.361Z,101291.63
2023-04-06T22:42:49.105Z,101296.06
2023-04-06T22:45:16.866Z,101273.34
2023-04-06T22:47:46.354Z,101254.06
2023-04-06T22:50:15.196Z,101264.63
2023-04-06T22:52:43.030Z,101329.50
2023-04-06T22:55:10.962Z,101324.25
2023-04-06T22:57:38.733Z,101347.03
2023-04-06T23:00:08.174Z,101358.44
2023-04-06T23:02:36.221Z,101369.88
2023-04-06T23:05:07.095Z,101381.25
2023-04-06T23:07:35.673Z,101371.59
2023-04-06T23:10:03.714Z,101340.94
2023-04-06T23:12:31.454Z,101333.03
2023-04-06T23:14:59.251Z,101336.53
2023-04-06T23:17:27.480Z,101338.31
2023-04-06T23:19:55.625Z,101327.78
2023-04-06T23:22:24.849Z,101275.19
2023-04-06T23:24:53.034Z,101230.50
2023-04-06T23:27:20.731Z,101244.53
2023-04-06T23:29:48.505Z,101234.00
2023-04-06T23:32:16.677Z,101263.78
2023-04-06T23:34:44.585Z,101249.78
2023-04-06T23:37:12.537Z,101260.28
2023-04-06T23:39:42.870Z,101266.44
2023-04-06T23:42:10.645Z,101282.19
2023-04-06T23:44:38.457Z,101277.81
2023-04-06T23:47:06.586Z,101295.34
2023-04-06T23:49:34.932Z,101294.44
2023-04-06T23:52:02.957Z,101293.53
2023-04-06T23:54:31.141Z,101287.38
2023-04-06T23:57:01.430Z,101307.53
2023-04-06T23:59:29.392Z,101305.78
